Aldan, Pennsylvania
Current Conditions -  °F | °C
As of 1:54 AM on Saturday 01 Nov 2014 (Local Time) from KPHL Reporting Station
Overcast Overcast  
Wind Chill: 52°   Ceiling: 1800
Heat Index: 52°   Visibility: 10mi
Dew Point: 44°   Wind: 18mph
Humidity: 74%   Direction: 20°NNE
Pressure: 29.79"   Gusts: NA
Location:  39.9228°N, 75.2984°W
Report Text: KPHL 010554Z 02016KT 10SM BKN018 OVC030 11/07 A2979 RMK AO2 SLP088 60000 T01110067 10111 20094 58015 $
Loading
Personal Weather Stations






























Interactive Weather Map
Tropical Storm Tracking
New forecast layout! Learn more

10-Day Weather Forecast

Advertisements
Track Severe Weather on mobile